sensor_id;sensor_type;location;lat;lon;timestamp;P1;durP1;ratioP1;P2;durP2;ratioP2
20476;SDS011;10397;50.948;11.092;2023-04-03T00:01:16;6.07;;;1.07;;
20476;SDS011;10397;50.948;11.092;2023-04-03T00:03:46;2.07;;;0.50;;
20476;SDS011;10397;50.948;11.092;2023-04-03T00:06:17;3.90;;;1.27;;
20476;SDS011;10397;50.948;11.092;2023-04-03T00:08:47;3.43;;;0.77;;
20476;SDS011;10397;50.948;11.092;2023-04-03T00:11:18;7.50;;;1.00;;
20476;SDS011;10397;50.948;11.092;2023-04-03T00:13:48;3.93;;;0.73;;
20476;SDS011;10397;50.948;11.092;2023-04-03T00:16:19;3.53;;;0.80;;
20476;SDS011;10397;50.948;11.092;2023-04-03T00:18:49;5.83;;;0.60;;
20476;SDS011;10397;50.948;11.092;2023-04-03T00:21:21;3.27;;;0.73;;
20476;SDS011;10397;50.948;11.092;2023-04-03T00:23:52;4.77;;;0.90;;
20476;SDS011;10397;50.948;11.092;2023-04-03T00:26:23;4.37;;;0.80;;
20476;SDS011;10397;50.948;11.092;2023-04-03T00:28:54;2.70;;;0.60;;
20476;SDS011;10397;50.948;11.092;2023-04-03T00:31:25;3.27;;;0.70;;
20476;SDS011;10397;50.948;11.092;2023-04-03T00:33:56;2.87;;;0.60;;
20476;SDS011;10397;50.948;11.092;2023-04-03T00:36:27;4.30;;;0.70;;
20476;SDS011;10397;50.948;11.092;2023-04-03T00:38:57;8.07;;;0.80;;
20476;SDS011;10397;50.948;11.092;2023-04-03T00:41:28;4.93;;;0.80;;
20476;SDS011;10397;50.948;11.092;2023-04-03T00:43:59;1.30;;;0.60;;
20476;SDS011;10397;50.948;11.092;2023-04-03T00:46:30;1.67;;;0.57;;
20476;SDS011;10397;50.948;11.092;2023-04-03T00:49:01;2.07;;;0.63;;
20476;SDS011;10397;50.948;11.092;2023-04-03T00:51:32;4.27;;;0.87;;
20476;SDS011;10397;50.948;11.092;2023-04-03T00:54:03;6.87;;;0.80;;
20476;SDS011;10397;50.948;11.092;2023-04-03T00:56:33;1.63;;;0.70;;
20476;SDS011;10397;50.948;11.092;2023-04-03T00:59:06;2.07;;;0.70;;
20476;SDS011;10397;50.948;11.092;2023-04-03T01:01:34;9.47;;;0.93;;
20476;SDS011;10397;50.948;11.092;2023-04-03T01:04:06;3.07;;;0.70;;
20476;SDS011;10397;50.948;11.092;2023-04-03T01:06:36;3.00;;;0.60;;
20476;SDS011;10397;50.948;11.092;2023-04-03T01:09:06;4.73;;;0.80;;
20476;SDS011;10397;50.948;11.092;2023-04-03T01:11:37;3.63;;;0.60;;
20476;SDS011;10397;50.948;11.092;2023-04-03T01:14:08;5.23;;;1.10;;
20476;SDS011;10397;50.948;11.092;2023-04-03T01:16:39;6.20;;;0.70;;
20476;SDS011;10397;50.948;11.092;2023-04-03T01:19:11;4.97;;;0.80;;
20476;SDS011;10397;50.948;11.092;2023-04-03T01:26:56;5.77;;;1.00;;
20476;SDS011;10397;50.948;11.092;2023-04-03T01:29:26;6.63;;;1.03;;
20476;SDS011;10397;50.948;11.092;2023-04-03T01:31:58;4.47;;;0.70;;
20476;SDS011;10397;50.948;11.092;2023-04-03T01:34:28;2.67;;;0.53;;
20476;SDS011;10397;50.948;11.092;2023-04-03T01:36:59;4.47;;;0.80;;
20476;SDS011;10397;50.948;11.092;2023-04-03T01:39:30;2.10;;;0.70;;
20476;SDS011;10397;50.948;11.092;2023-04-03T01:42:01;4.93;;;0.80;;
20476;SDS011;10397;50.948;11.092;2023-04-03T01:44:31;3.73;;;0.90;;
20476;SDS011;10397;50.948;11.092;2023-04-03T01:47:04;4.73;;;1.07;;
20476;SDS011;10397;50.948;11.092;2023-04-03T01:49:33;4.97;;;1.30;;
20476;SDS011;10397;50.948;11.092;2023-04-03T01:52:04;2.20;;;0.70;;
20476;SDS011;10397;50.948;11.092;2023-04-03T01:54:35;6.93;;;1.07;;
20476;SDS011;10397;50.948;11.092;2023-04-03T01:57:06;3.50;;;0.80;;
20476;SDS011;10397;50.948;11.092;2023-04-03T01:59:37;3.90;;;0.87;;
20476;SDS011;10397;50.948;11.092;2023-04-03T02:02:08;4.43;;;1.40;;
20476;SDS011;10397;50.948;11.092;2023-04-03T02:04:39;9.70;;;1.27;;
20476;SDS011;10397;50.948;11.092;2023-04-03T02:07:10;3.87;;;0.60;;
20476;SDS011;10397;50.948;11.092;2023-04-03T02:09:41;5.40;;;0.97;;
20476;SDS011;10397;50.948;11.092;2023-04-03T02:12:11;4.30;;;1.73;;
20476;SDS011;10397;50.948;11.092;2023-04-03T02:14:42;7.00;;;1.70;;
20476;SDS011;10397;50.948;11.092;2023-04-03T02:17:13;4.23;;;0.87;;
20476;SDS011;10397;50.948;11.092;2023-04-03T02:19:44;4.47;;;1.27;;
20476;SDS011;10397;50.948;11.092;2023-04-03T02:22:15;2.77;;;0.93;;
20476;SDS011;10397;50.948;11.092;2023-04-03T02:24:46;2.67;;;0.97;;
20476;SDS011;10397;50.948;11.092;2023-04-03T02:27:17;4.10;;;1.43;;
20476;SDS011;10397;50.948;11.092;2023-04-03T02:29:47;8.37;;;1.10;;
20476;SDS011;10397;50.948;11.092;2023-04-03T02:32:18;2.90;;;0.90;;
20476;SDS011;10397;50.948;11.092;2023-04-03T02:34:49;4.93;;;1.30;;
20476;SDS011;10397;50.948;11.092;2023-04-03T02:37:19;4.67;;;1.30;;
20476;SDS011;10397;50.948;11.092;2023-04-03T02:39:50;3.97;;;1.07;;
20476;SDS011;10397;50.948;11.092;2023-04-03T02:42:21;7.57;;;1.10;;
20476;SDS011;10397;50.948;11.092;2023-04-03T02:44:52;3.97;;;1.00;;
20476;SDS011;10397;50.948;11.092;2023-04-03T02:47:23;4.10;;;1.13;;
20476;SDS011;10397;50.948;11.092;2023-04-03T02:49:54;4.20;;;1.37;;
20476;SDS011;10397;50.948;11.092;2023-04-03T02:52:25;5.83;;;1.47;;
20476;SDS011;10397;50.948;11.092;2023-04-03T02:54:56;2.93;;;1.17;;
20476;SDS011;10397;50.948;11.092;2023-04-03T02:57:27;9.63;;;1.47;;
20476;SDS011;10397;50.948;11.092;2023-04-03T02:59:58;8.03;;;1.37;;
20476;SDS011;10397;50.948;11.092;2023-04-03T03:02:29;8.10;;;1.50;;
20476;SDS011;10397;50.948;11.092;2023-04-03T03:05:00;4.63;;;1.23;;
20476;SDS011;10397;50.948;11.092;2023-04-03T03:07:31;6.87;;;0.80;;
20476;SDS011;10397;50.948;11.092;2023-04-03T03:10:02;2.70;;;1.00;;
20476;SDS011;10397;50.948;11.092;2023-04-03T03:12:32;6.70;;;1.37;;
20476;SDS011;10397;50.948;11.092;2023-04-03T03:15:04;7.70;;;1.77;;
20476;SDS011;10397;50.948;11.092;2023-04-03T03:17:34;3.47;;;1.10;;
20476;SDS011;10397;50.948;11.092;2023-04-03T03:20:05;3.37;;;1.50;;
20476;SDS011;10397;50.948;11.092;2023-04-03T03:22:35;2.97;;;1.30;;
20476;SDS011;10397;50.948;11.092;2023-04-03T03:25:06;3.83;;;1.87;;
20476;SDS011;10397;50.948;11.092;2023-04-03T03:27:37;6.33;;;1.63;;
20476;SDS011;10397;50.948;11.092;2023-04-03T03:30:08;4.03;;;1.20;;
20476;SDS011;10397;50.948;11.092;2023-04-03T03:32:39;4.53;;;1.30;;
20476;SDS011;10397;50.948;11.092;2023-04-03T03:35:10;6.30;;;1.63;;
20476;SDS011;10397;50.948;11.092;2023-04-03T03:37:41;8.17;;;1.80;;
20476;SDS011;10397;50.948;11.092;2023-04-03T03:40:12;4.90;;;1.70;;
20476;SDS011;10397;50.948;11.092;2023-04-03T03:42:42;6.13;;;1.50;;
20476;SDS011;10397;50.948;11.092;2023-04-03T03:45:13;6.60;;;1.40;;
20476;SDS011;10397;50.948;11.092;2023-04-03T03:47:44;6.43;;;1.63;;
20476;SDS011;10397;50.948;11.092;2023-04-03T03:50:15;6.47;;;1.67;;
20476;SDS011;10397;50.948;11.092;2023-04-03T03:52:45;6.63;;;2.30;;
20476;SDS011;10397;50.948;11.092;2023-04-03T03:55:16;5.17;;;1.33;;
20476;SDS011;10397;50.948;11.092;2023-04-03T03:57:47;9.13;;;1.20;;
20476;SDS011;10397;50.948;11.092;2023-04-03T04:00:18;3.73;;;1.33;;
20476;SDS011;10397;50.948;11.092;2023-04-03T04:02:48;6.33;;;1.57;;
20476;SDS011;10397;50.948;11.092;2023-04-03T04:05:19;4.80;;;1.20;;
20476;SDS011;10397;50.948;11.092;2023-04-03T04:07:50;4.47;;;1.90;;
20476;SDS011;10397;50.948;11.092;2023-04-03T04:10:21;4.07;;;1.63;;
20476;SDS011;10397;50.948;11.092;2023-04-03T04:12:52;8.30;;;1.60;;
20476;SDS011;10397;50.948;11.092;2023-04-03T04:15:23;2.10;;;1.10;;
20476;SDS011;10397;50.948;11.092;2023-04-03T04:17:54;5.67;;;1.53;;
20476;SDS011;10397;50.948;11.092;2023-04-03T04:20:25;5.07;;;1.60;;
20476;SDS011;10397;50.948;11.092;2023-04-03T04:22:56;6.50;;;1.57;;
20476;SDS011;10397;50.948;11.092;2023-04-03T04:25:27;10.70;;;2.10;;
20476;SDS011;10397;50.948;11.092;2023-04-03T04:27:58;4.10;;;1.97;;
20476;SDS011;10397;50.948;11.092;2023-04-03T04:30:29;3.77;;;1.70;;
20476;SDS011;10397;50.948;11.092;2023-04-03T04:33:00;5.17;;;2.10;;
20476;SDS011;10397;50.948;11.092;2023-04-03T04:35:31;5.93;;;2.10;;
20476;SDS011;10397;50.948;11.092;2023-04-03T04:38:02;5.70;;;2.07;;
20476;SDS011;10397;50.948;11.092;2023-04-03T04:40:32;6.00;;;1.70;;
20476;SDS011;10397;50.948;11.092;2023-04-03T04:43:03;3.70;;;2.23;;
20476;SDS011;10397;50.948;11.092;2023-04-03T04:45:34;6.57;;;2.10;;
20476;SDS011;10397;50.948;11.092;2023-04-03T04:48:05;6.03;;;2.30;;
20476;SDS011;10397;50.948;11.092;2023-04-03T04:50:36;7.90;;;1.93;;
20476;SDS011;10397;50.948;11.092;2023-04-03T04:53:07;6.47;;;2.27;;
20476;SDS011;10397;50.948;11.092;2023-04-03T04:55:38;7.03;;;2.20;;
20476;SDS011;10397;50.948;11.092;2023-04-03T04:58:09;5.93;;;1.90;;
20476;SDS011;10397;50.948;11.092;2023-04-03T05:00:40;4.47;;;2.03;;
20476;SDS011;10397;50.948;11.092;2023-04-03T05:03:12;7.53;;;3.07;;
20476;SDS011;10397;50.948;11.092;2023-04-03T05:05:42;5.70;;;2.03;;
20476;SDS011;10397;50.948;11.092;2023-04-03T05:08:13;3.30;;;2.10;;
20476;SDS011;10397;50.948;11.092;2023-04-03T05:10:45;4.13;;;1.50;;
20476;SDS011;10397;50.948;11.092;2023-04-03T05:13:15;4.77;;;1.87;;
20476;SDS011;10397;50.948;11.092;2023-04-03T05:15:46;5.23;;;2.43;;
20476;SDS011;10397;50.948;11.092;2023-04-03T05:18:17;3.17;;;1.87;;
20476;SDS011;10397;50.948;11.092;2023-04-03T05:20:49;4.50;;;2.40;;
20476;SDS011;10397;50.948;11.092;2023-04-03T05:23:19;4.13;;;2.63;;
20476;SDS011;10397;50.948;11.092;2023-04-03T05:25:50;5.37;;;2.67;;
20476;SDS011;10397;50.948;11.092;2023-04-03T05:28:21;7.63;;;3.10;;
20476;SDS011;10397;50.948;11.092;2023-04-03T05:30:55;3.70;;;1.70;;
20476;SDS011;10397;50.948;11.092;2023-04-03T05:33:25;8.03;;;2.60;;
20476;SDS011;10397;50.948;11.092;2023-04-03T05:35:55;10.70;;;3.57;;
20476;SDS011;10397;50.948;11.092;2023-04-03T05:38:26;6.13;;;2.77;;
20476;SDS011;10397;50.948;11.092;2023-04-03T05:40:57;6.50;;;2.70;;
20476;SDS011;10397;50.948;11.092;2023-04-03T05:43:28;6.13;;;3.13;;
20476;SDS011;10397;50.948;11.092;2023-04-03T05:45:58;7.00;;;3.07;;
20476;SDS011;10397;50.948;11.092;2023-04-03T05:48:29;5.40;;;2.57;;
20476;SDS011;10397;50.948;11.092;2023-04-03T05:51:01;4.87;;;2.95;;
20476;SDS011;10397;50.948;11.092;2023-04-03T05:53:33;5.08;;;2.50;;
20476;SDS011;10397;50.948;11.092;2023-04-03T05:56:03;5.27;;;3.30;;
20476;SDS011;10397;50.948;11.092;2023-04-03T05:58:34;5.37;;;2.95;;
20476;SDS011;10397;50.948;11.092;2023-04-03T06:01:05;5.47;;;2.75;;
20476;SDS011;10397;50.948;11.092;2023-04-03T06:03:36;10.85;;;2.60;;
20476;SDS011;10397;50.948;11.092;2023-04-03T06:06:10;5.15;;;2.65;;
20476;SDS011;10397;50.948;11.092;2023-04-03T06:08:39;4.33;;;2.00;;
20476;SDS011;10397;50.948;11.092;2023-04-03T06:11:10;8.43;;;2.42;;
20476;SDS011;10397;50.948;11.092;2023-04-03T06:13:41;5.33;;;1.80;;
20476;SDS011;10397;50.948;11.092;2023-04-03T06:16:13;5.50;;;1.92;;
20476;SDS011;10397;50.948;11.092;2023-04-03T06:18:44;8.88;;;2.30;;
20476;SDS011;10397;50.948;11.092;2023-04-03T06:21:15;3.25;;;2.30;;
20476;SDS011;10397;50.948;11.092;2023-04-03T06:23:46;6.15;;;2.20;;
20476;SDS011;10397;50.948;11.092;2023-04-03T06:26:18;6.12;;;1.98;;
20476;SDS011;10397;50.948;11.092;2023-04-03T06:28:50;9.30;;;2.67;;
20476;SDS011;10397;50.948;11.092;2023-04-03T06:31:21;9.23;;;2.60;;
20476;SDS011;10397;50.948;11.092;2023-04-03T06:33:53;5.58;;;1.60;;
20476;SDS011;10397;50.948;11.092;2023-04-03T06:36:24;5.65;;;1.75;;
20476;SDS011;10397;50.948;11.092;2023-04-03T06:38:55;9.00;;;1.85;;
20476;SDS011;10397;50.948;11.092;2023-04-03T06:41:27;7.90;;;1.62;;
20476;SDS011;10397;50.948;11.092;2023-04-03T06:43:58;3.87;;;1.53;;
20476;SDS011;10397;50.948;11.092;2023-04-03T06:46:29;3.93;;;1.40;;
20476;SDS011;10397;50.948;11.092;2023-04-03T06:49:00;5.70;;;1.50;;
20476;SDS011;10397;50.948;11.092;2023-04-03T06:51:32;4.60;;;1.60;;
20476;SDS011;10397;50.948;11.092;2023-04-03T06:54:04;4.60;;;1.20;;
20476;SDS011;10397;50.948;11.092;2023-04-03T06:56:34;4.57;;;0.80;;
20476;SDS011;10397;50.948;11.092;2023-04-03T06:59:04;5.30;;;0.97;;
20476;SDS011;10397;50.948;11.092;2023-04-03T07:01:35;5.95;;;1.45;;
20476;SDS011;10397;50.948;11.092;2023-04-03T07:04:07;2.50;;;0.95;;
20476;SDS011;10397;50.948;11.092;2023-04-03T07:06:37;5.07;;;1.63;;
20476;SDS011;10397;50.948;11.092;2023-04-03T07:09:09;3.42;;;1.25;;
20476;SDS011;10397;50.948;11.092;2023-04-03T07:11:39;15.53;;;1.23;;
20476;SDS011;10397;50.948;11.092;2023-04-03T07:14:10;3.00;;;1.02;;
20476;SDS011;10397;50.948;11.092;2023-04-03T07:16:42;4.75;;;1.27;;
20476;SDS011;10397;50.948;11.092;2023-04-03T07:19:13;7.87;;;2.05;;
20476;SDS011;10397;50.948;11.092;2023-04-03T07:21:45;6.65;;;3.15;;
20476;SDS011;10397;50.948;11.092;2023-04-03T07:24:17;13.65;;;3.98;;
20476;SDS011;10397;50.948;11.092;2023-04-03T07:26:49;11.48;;;5.05;;
20476;SDS011;10397;50.948;11.092;2023-04-03T07:29:19;15.30;;;5.07;;
20476;SDS011;10397;50.948;11.092;2023-04-03T07:31:50;8.48;;;4.00;;
20476;SDS011;10397;50.948;11.092;2023-04-03T07:34:21;8.20;;;3.10;;
20476;SDS011;10397;50.948;11.092;2023-04-03T07:36:52;10.60;;;5.20;;
20476;SDS011;10397;50.948;11.092;2023-04-03T07:39:23;7.90;;;3.53;;
20476;SDS011;10397;50.948;11.092;2023-04-03T07:41:53;5.75;;;2.75;;
20476;SDS011;10397;50.948;11.092;2023-04-03T07:44:24;5.65;;;2.40;;
20476;SDS011;10397;50.948;11.092;2023-04-03T07:46:56;6.78;;;2.20;;
20476;SDS011;10397;50.948;11.092;2023-04-03T07:49:27;5.92;;;1.92;;
20476;SDS011;10397;50.948;11.092;2023-04-03T07:51:59;7.83;;;1.75;;
20476;SDS011;10397;50.948;11.092;2023-04-03T07:54:30;3.15;;;1.40;;
20476;SDS011;10397;50.948;11.092;2023-04-03T07:57:02;2.77;;;1.10;;
20476;SDS011;10397;50.948;11.092;2023-04-03T07:59:32;4.53;;;1.60;;
20476;SDS011;10397;50.948;11.092;2023-04-03T08:02:03;4.65;;;1.75;;
20476;SDS011;10397;50.948;11.092;2023-04-03T08:04:33;2.20;;;1.10;;
20476;SDS011;10397;50.948;11.092;2023-04-03T08:07:05;6.55;;;1.30;;
20476;SDS011;10397;50.948;11.092;2023-04-03T08:09:36;5.25;;;1.60;;
20476;SDS011;10397;50.948;11.092;2023-04-03T08:12:07;3.57;;;0.90;;
20476;SDS011;10397;50.948;11.092;2023-04-03T08:14:38;5.77;;;1.50;;
20476;SDS011;10397;50.948;11.092;2023-04-03T08:17:09;2.40;;;0.77;;
20476;SDS011;10397;50.948;11.092;2023-04-03T08:19:41;3.60;;;0.42;;
20476;SDS011;10397;50.948;11.092;2023-04-03T08:22:12;1.90;;;0.80;;
20476;SDS011;10397;50.948;11.092;2023-04-03T08:24:43;2.58;;;0.70;;
20476;SDS011;10397;50.948;11.092;2023-04-03T08:27:14;4.70;;;0.57;;
20476;SDS011;10397;50.948;11.092;2023-04-03T08:29:45;3.47;;;0.60;;
20476;SDS011;10397;50.948;11.092;2023-04-03T08:32:16;1.63;;;0.40;;
20476;SDS011;10397;50.948;11.092;2023-04-03T08:34:47;2.93;;;0.83;;
20476;SDS011;10397;50.948;11.092;2023-04-03T08:37:17;5.70;;;0.60;;
20476;SDS011;10397;50.948;11.092;2023-04-03T08:39:48;1.77;;;0.60;;
20476;SDS011;10397;50.948;11.092;2023-04-03T08:42:24;3.67;;;0.97;;
20476;SDS011;10397;50.948;11.092;2023-04-03T08:45:02;5.20;;;0.87;;
20476;SDS011;10397;50.948;11.092;2023-04-03T08:50:31;3.33;;;0.73;;
20476;SDS011;10397;50.948;11.092;2023-04-03T08:53:01;4.30;;;0.70;;
20476;SDS011;10397;50.948;11.092;2023-04-03T08:55:39;2.33;;;0.60;;
20476;SDS011;10397;50.948;11.092;2023-04-03T09:01:03;2.33;;;0.50;;
20476;SDS011;10397;50.948;11.092;2023-04-03T09:03:34;1.63;;;0.53;;
20476;SDS011;10397;50.948;11.092;2023-04-03T09:06:04;3.00;;;0.50;;
20476;SDS011;10397;50.948;11.092;2023-04-03T09:08:40;9.08;;;1.27;;
20476;SDS011;10397;50.948;11.092;2023-04-03T09:11:26;4.33;;;0.60;;
20476;SDS011;10397;50.948;11.092;2023-04-03T09:14:21;3.70;;;0.60;;
20476;SDS011;10397;50.948;11.092;2023-04-03T09:16:56;2.60;;;0.60;;
20476;SDS011;10397;50.948;11.092;2023-04-03T09:19:32;4.50;;;0.30;;
20476;SDS011;10397;50.948;11.092;2023-04-03T09:22:13;2.80;;;0.80;;
20476;SDS011;10397;50.948;11.092;2023-04-03T09:24:42;1.83;;;0.40;;
20476;SDS011;10397;50.948;11.092;2023-04-03T09:27:12;2.87;;;0.57;;
20476;SDS011;10397;50.948;11.092;2023-04-03T09:29:43;2.15;;;0.40;;
20476;SDS011;10397;50.948;11.092;2023-04-03T09:32:21;3.17;;;0.47;;
20476;SDS011;10397;50.948;11.092;2023-04-03T09:40:43;4.07;;;0.40;;
20476;SDS011;10397;50.948;11.092;2023-04-03T09:45:53;3.83;;;0.53;;
20476;SDS011;10397;50.948;11.092;2023-04-03T09:48:24;1.65;;;0.35;;
20476;SDS011;10397;50.948;11.092;2023-04-03T09:50:55;1.73;;;0.30;;
20476;SDS011;10397;50.948;11.092;2023-04-03T09:55:56;2.98;;;0.40;;
20476;SDS011;10397;50.948;11.092;2023-04-03T09:58:31;1.87;;;0.30;;
20476;SDS011;10397;50.948;11.092;2023-04-03T10:01:01;2.07;;;0.40;;
20476;SDS011;10397;50.948;11.092;2023-04-03T10:03:35;1.72;;;0.23;;
20476;SDS011;10397;50.948;11.092;2023-04-03T10:06:09;2.40;;;0.50;;
20476;SDS011;10397;50.948;11.092;2023-04-03T10:08:35;0.60;;;0.50;;
20476;SDS011;10397;50.948;11.092;2023-04-03T10:11:13;1.00;;;0.37;;
20476;SDS011;10397;50.948;11.092;2023-04-03T10:13:53;1.70;;;0.30;;
20476;SDS011;10397;50.948;11.092;2023-04-03T10:18:58;1.50;;;0.30;;
20476;SDS011;10397;50.948;11.092;2023-04-03T10:21:40;1.43;;;0.30;;
20476;SDS011;10397;50.948;11.092;2023-04-03T10:24:17;3.50;;;0.83;;
20476;SDS011;10397;50.948;11.092;2023-04-03T10:34:40;4.20;;;0.50;;
20476;SDS011;10397;50.948;11.092;2023-04-03T10:37:16;2.67;;;0.63;;
20476;SDS011;10397;50.948;11.092;2023-04-03T10:45:18;2.07;;;0.43;;
20476;SDS011;10397;50.948;11.092;2023-04-03T10:50:43;1.93;;;0.50;;
20476;SDS011;10397;50.948;11.092;2023-04-03T10:53:34;2.60;;;0.50;;
20476;SDS011;10397;50.948;11.092;2023-04-03T10:56:15;4.33;;;0.70;;
20476;SDS011;10397;50.948;11.092;2023-04-03T11:01:45;1.87;;;0.50;;
20476;SDS011;10397;50.948;11.092;2023-04-03T11:04:16;1.77;;;0.42;;
20476;SDS011;10397;50.948;11.092;2023-04-03T11:06:51;2.50;;;0.70;;
20476;SDS011;10397;50.948;11.092;2023-04-03T11:09:30;2.10;;;0.40;;
20476;SDS011;10397;50.948;11.092;2023-04-03T11:12:04;1.47;;;0.40;;
20476;SDS011;10397;50.948;11.092;2023-04-03T11:14:32;4.93;;;0.87;;
20476;SDS011;10397;50.948;11.092;2023-04-03T11:17:09;1.87;;;0.60;;
20476;SDS011;10397;50.948;11.092;2023-04-03T11:19:47;2.80;;;0.67;;
20476;SDS011;10397;50.948;11.092;2023-04-03T11:22:29;9.90;;;0.63;;
20476;SDS011;10397;50.948;11.092;2023-04-03T11:25:04;1.30;;;0.60;;
20476;SDS011;10397;50.948;11.092;2023-04-03T11:27:37;2.52;;;0.60;;
20476;SDS011;10397;50.948;11.092;2023-04-03T11:33:03;2.13;;;0.53;;
20476;SDS011;10397;50.948;11.092;2023-04-03T11:35:30;3.43;;;0.50;;
20476;SDS011;10397;50.948;11.092;2023-04-03T11:38:02;2.62;;;0.72;;
20476;SDS011;10397;50.948;11.092;2023-04-03T11:40:33;2.10;;;0.50;;
20476;SDS011;10397;50.948;11.092;2023-04-03T11:43:04;1.13;;;0.40;;
20476;SDS011;10397;50.948;11.092;2023-04-03T11:45:37;1.17;;;0.40;;
20476;SDS011;10397;50.948;11.092;2023-04-03T11:50:49;2.70;;;0.50;;
20476;SDS011;10397;50.948;11.092;2023-04-03T11:53:25;6.23;;;0.50;;
20476;SDS011;10397;50.948;11.092;2023-04-03T12:01:47;2.47;;;0.60;;
20476;SDS011;10397;50.948;11.092;2023-04-03T12:04:17;2.07;;;0.50;;
20476;SDS011;10397;50.948;11.092;2023-04-03T12:09:28;1.83;;;0.60;;
20476;SDS011;10397;50.948;11.092;2023-04-03T12:12:21;2.87;;;0.67;;
20476;SDS011;10397;50.948;11.092;2023-04-03T12:14:34;3.17;;;0.50;;
20476;SDS011;10397;50.948;11.092;2023-04-03T12:17:12;2.87;;;0.50;;
20476;SDS011;10397;50.948;11.092;2023-04-03T12:19:36;5.03;;;0.40;;
20476;SDS011;10397;50.948;11.092;2023-04-03T12:22:07;3.00;;;0.57;;
20476;SDS011;10397;50.948;11.092;2023-04-03T12:24:38;1.10;;;0.45;;
20476;SDS011;10397;50.948;11.092;2023-04-03T12:27:29;3.30;;;0.60;;
20476;SDS011;10397;50.948;11.092;2023-04-03T12:32:43;2.53;;;0.43;;
20476;SDS011;10397;50.948;11.092;2023-04-03T12:38:18;3.17;;;0.60;;
20476;SDS011;10397;50.948;11.092;2023-04-03T12:43:35;2.03;;;0.60;;
20476;SDS011;10397;50.948;11.092;2023-04-03T12:46:23;4.73;;;0.40;;
20476;SDS011;10397;50.948;11.092;2023-04-03T12:48:55;1.33;;;0.60;;
20476;SDS011;10397;50.948;11.092;2023-04-03T12:54:12;1.27;;;0.40;;
20476;SDS011;10397;50.948;11.092;2023-04-03T12:56:34;7.97;;;0.53;;
20476;SDS011;10397;50.948;11.092;2023-04-03T12:59:22;4.10;;;0.60;;
20476;SDS011;10397;50.948;11.092;2023-04-03T13:01:55;3.87;;;0.53;;
20476;SDS011;10397;50.948;11.092;2023-04-03T13:04:25;1.77;;;0.37;;
20476;SDS011;10397;50.948;11.092;2023-04-03T13:06:55;2.77;;;0.40;;
20476;SDS011;10397;50.948;11.092;2023-04-03T13:09:27;2.40;;;0.37;;
20476;SDS011;10397;50.948;11.092;2023-04-03T13:14:28;2.25;;;0.40;;
20476;SDS011;10397;50.948;11.092;2023-04-03T13:17:03;1.67;;;0.50;;
20476;SDS011;10397;50.948;11.092;2023-04-03T13:19:30;1.22;;;0.30;;
20476;SDS011;10397;50.948;11.092;2023-04-03T13:22:02;3.37;;;0.50;;
20476;SDS011;10397;50.948;11.092;2023-04-03T13:24:37;1.83;;;0.50;;
20476;SDS011;10397;50.948;11.092;2023-04-03T13:27:10;1.83;;;0.40;;
20476;SDS011;10397;50.948;11.092;2023-04-03T13:29:39;1.63;;;0.50;;
20476;SDS011;10397;50.948;11.092;2023-04-03T13:32:14;3.27;;;0.47;;
20476;SDS011;10397;50.948;11.092;2023-04-03T13:34:43;5.43;;;0.67;;
20476;SDS011;10397;50.948;11.092;2023-04-03T13:37:21;5.90;;;0.50;;
20476;SDS011;10397;50.948;11.092;2023-04-03T13:39:59;1.97;;;0.47;;
20476;SDS011;10397;50.948;11.092;2023-04-03T13:42:37;2.97;;;0.60;;
20476;SDS011;10397;50.948;11.092;2023-04-03T13:45:26;1.77;;;0.50;;
20476;SDS011;10397;50.948;11.092;2023-04-03T13:48:08;4.00;;;1.60;;
20476;SDS011;10397;50.948;11.092;2023-04-03T13:53:30;4.37;;;0.83;;
20476;SDS011;10397;50.948;11.092;2023-04-03T13:56:16;3.03;;;0.43;;
20476;SDS011;10397;50.948;11.092;2023-04-03T13:58:34;2.40;;;0.80;;
20476;SDS011;10397;50.948;11.092;2023-04-03T14:03:51;0.97;;;0.23;;
20476;SDS011;10397;50.948;11.092;2023-04-03T14:06:17;1.10;;;0.40;;
20476;SDS011;10397;50.948;11.092;2023-04-03T14:08:49;2.17;;;0.62;;
20476;SDS011;10397;50.948;11.092;2023-04-03T14:11:22;1.87;;;0.50;;
20476;SDS011;10397;50.948;11.092;2023-04-03T14:13:53;3.23;;;0.53;;
20476;SDS011;10397;50.948;11.092;2023-04-03T14:16:25;2.53;;;0.77;;
20476;SDS011;10397;50.948;11.092;2023-04-03T14:18:55;3.12;;;0.57;;
20476;SDS011;10397;50.948;11.092;2023-04-03T14:21:26;2.72;;;0.70;;
20476;SDS011;10397;50.948;11.092;2023-04-03T14:23:57;4.87;;;0.60;;
20476;SDS011;10397;50.948;11.092;2023-04-03T14:26:28;2.33;;;0.70;;
20476;SDS011;10397;50.948;11.092;2023-04-03T14:28:59;6.25;;;0.70;;
20476;SDS011;10397;50.948;11.092;2023-04-03T14:31:30;2.25;;;0.60;;
20476;SDS011;10397;50.948;11.092;2023-04-03T14:34:02;3.72;;;0.50;;
20476;SDS011;10397;50.948;11.092;2023-04-03T14:36:33;3.02;;;0.50;;
20476;SDS011;10397;50.948;11.092;2023-04-03T14:39:05;3.40;;;0.82;;
20476;SDS011;10397;50.948;11.092;2023-04-03T14:41:35;1.10;;;0.30;;
20476;SDS011;10397;50.948;11.092;2023-04-03T14:44:06;5.33;;;0.50;;
20476;SDS011;10397;50.948;11.092;2023-04-03T14:46:39;2.83;;;0.47;;
20476;SDS011;10397;50.948;11.092;2023-04-03T14:49:12;1.70;;;0.60;;
20476;SDS011;10397;50.948;11.092;2023-04-03T14:51:42;2.23;;;0.70;;
20476;SDS011;10397;50.948;11.092;2023-04-03T14:54:15;3.58;;;1.35;;
20476;SDS011;10397;50.948;11.092;2023-04-03T14:56:45;5.12;;;0.80;;
20476;SDS011;10397;50.948;11.092;2023-04-03T14:59:16;4.22;;;0.40;;
20476;SDS011;10397;50.948;11.092;2023-04-03T15:01:47;1.50;;;0.43;;
20476;SDS011;10397;50.948;11.092;2023-04-03T15:04:19;4.10;;;0.70;;
20476;SDS011;10397;50.948;11.092;2023-04-03T15:06:49;2.17;;;0.50;;
20476;SDS011;10397;50.948;11.092;2023-04-03T15:09:21;4.40;;;0.70;;
20476;SDS011;10397;50.948;11.092;2023-04-03T15:11:51;1.80;;;0.67;;
20476;SDS011;10397;50.948;11.092;2023-04-03T15:14:22;2.10;;;0.50;;
20476;SDS011;10397;50.948;11.092;2023-04-03T15:16:52;2.60;;;0.60;;
20476;SDS011;10397;50.948;11.092;2023-04-03T15:19:23;2.08;;;0.65;;
20476;SDS011;10397;50.948;11.092;2023-04-03T15:21:55;3.45;;;0.68;;
20476;SDS011;10397;50.948;11.092;2023-04-03T15:24:25;2.63;;;0.40;;
20476;SDS011;10397;50.948;11.092;2023-04-03T15:26:57;2.60;;;0.60;;
20476;SDS011;10397;50.948;11.092;2023-04-03T15:29:28;1.47;;;0.50;;
20476;SDS011;10397;50.948;11.092;2023-04-03T15:31:59;2.10;;;0.50;;
20476;SDS011;10397;50.948;11.092;2023-04-03T15:34:31;2.35;;;0.68;;
20476;SDS011;10397;50.948;11.092;2023-04-03T15:37:02;3.42;;;0.82;;
20476;SDS011;10397;50.948;11.092;2023-04-03T15:39:32;3.07;;;0.63;;
20476;SDS011;10397;50.948;11.092;2023-04-03T15:42:04;3.77;;;0.70;;
20476;SDS011;10397;50.948;11.092;2023-04-03T15:44:34;5.50;;;0.70;;
20476;SDS011;10397;50.948;11.092;2023-04-03T15:47:06;2.47;;;1.00;;
20476;SDS011;10397;50.948;11.092;2023-04-03T15:49:37;2.08;;;0.57;;
20476;SDS011;10397;50.948;11.092;2023-04-03T15:52:08;3.60;;;0.60;;
20476;SDS011;10397;50.948;11.092;2023-04-03T15:54:39;4.20;;;0.80;;
20476;SDS011;10397;50.948;11.092;2023-04-03T15:57:10;3.45;;;1.30;;
20476;SDS011;10397;50.948;11.092;2023-04-03T15:59:42;4.25;;;0.93;;
20476;SDS011;10397;50.948;11.092;2023-04-03T16:02:13;1.72;;;0.70;;
20476;SDS011;10397;50.948;11.092;2023-04-03T16:04:44;1.93;;;0.70;;
20476;SDS011;10397;50.948;11.092;2023-04-03T16:07:15;5.28;;;0.70;;
20476;SDS011;10397;50.948;11.092;2023-04-03T16:09:46;3.20;;;0.70;;
20476;SDS011;10397;50.948;11.092;2023-04-03T16:12:17;2.50;;;0.65;;
20476;SDS011;10397;50.948;11.092;2023-04-03T16:14:48;3.00;;;0.70;;
20476;SDS011;10397;50.948;11.092;2023-04-03T16:17:19;1.30;;;0.50;;